Terminal Aerodrome Forecast
Issued by NWS

Home | Current Version | Previous Version | Text Only | Print | Product List | Glossary On
Versions: 1 2 3 4 5 6 7 8 9 10 11 12 13 14 15 16 17
000
FTUS41 KBOX 290541
TAFBAF
TAF
KBAF 290541Z 2906/3006 16004KT P6SM FEW150
     FM290900 00000KT 6SM BR SCT250
     FM291100 VRB03KT P6SM BKN250
     FM291600 10006KT P6SM VCTS BKN025CB
     FM292000 19007KT P6SM VCSH SCT070
     FM292200 19006KT P6SM SCT200
     FM300300 19004KT 6SM BR VCSH BKN015=

USA.gov is the U.S. government's official web portal to all federal, state and local government web resources and services.